Time;durP1;ratioP1;P1;durP2;ratioP2;P2;SDS_P1;SDS_P2;PMS_P1;PMS_P2;Temp;Humidity;BMP_temperature;BMP_pressure;BME280_temperature;BME280_humidity;BME280_pressure;Samples;Min_cycle;Max_cycle;Signal;HPM_P1;HPM_P2
2023/01/19 00:01:48;;;;;;;24.40;15.45;;;-0.60;1.00;;;;;;5116203;27;20234;-80
2023/01/19 00:04:25;;;;;;;23.55;15.70;;;-0.60;1.00;;;;;;5131607;27;20249;-84
2023/01/19 00:07:18;;;;;;;24.05;17.05;;;-0.70;1.00;;;;;;5123625;27;20246;-81
2023/01/19 00:12:38;;;;;;;23.50;15.90;;;-1.00;1.00;;;;;;5092806;28;20258;-85
2023/01/19 00:18:07;;;;;;;24.90;14.95;;;-1.20;1.00;;;;;;5076238;28;20236;-82
2023/01/19 00:20:47;;;;;;;24.67;14.75;;;-1.20;1.00;;;;;;5083372;28;20260;-82
2023/01/19 00:23:47;;;;;;;22.27;14.25;;;-1.10;1.00;;;;;;5104484;27;21024;-82
2023/01/19 00:26:39;;;;;;;24.38;15.43;;;-1.10;1.00;;;;;;5108763;27;20744;-86
2023/01/19 00:29:08;;;;;;;23.88;14.73;;;-1.00;1.00;;;;;;5088561;27;20250;-86
2023/01/19 00:31:56;;;;;;;20.58;13.50;;;-1.00;1.00;;;;;;5115764;27;20231;-84
2023/01/19 00:34:38;;;;;;;22.60;15.23;;;-1.00;1.00;;;;;;5107472;27;20221;-85
2023/01/19 00:37:08;;;;;;;23.25;15.88;;;-1.10;1.00;;;;;;5104361;27;20225;-82
2023/01/19 00:39:38;;;;;;;22.45;15.07;;;-1.10;1.00;;;;;;5102230;27;20291;-81
2023/01/19 00:45:18;;;;;;;24.08;15.40;;;-1.20;1.00;;;;;;5113504;27;20243;-83
2023/01/19 00:47:57;;;;;;;26.00;15.70;;;-1.20;1.00;;;;;;5128198;27;20220;-81
2023/01/19 00:50:28;;;;;;;25.13;15.48;;;-1.20;1.00;;;;;;5121618;27;20235;-82
2023/01/19 00:52:59;;;;;;;22.55;15.57;;;-1.20;1.00;;;;;;5124328;27;20234;-85
2023/01/19 00:55:29;;;;;;;21.38;13.98;;;-1.20;1.00;;;;;;5096395;28;20232;-79
2023/01/19 00:58:08;;;;;;;23.55;14.98;;;-1.20;1.00;;;;;;5102399;27;20228;-81
2023/01/19 01:00:37;;;;;;;23.40;15.32;;;-1.30;1.00;;;;;;5101877;27;20272;-81
2023/01/19 01:03:08;;;;;;;24.42;15.82;;;-1.20;1.00;;;;;;5101246;27;20235;-82
2023/01/19 01:05:41;;;;;;;22.80;14.65;;;-1.20;1.00;;;;;;5108304;27;20262;-83
2023/01/19 01:08:09;;;;;;;21.08;16.02;;;-1.30;1.00;;;;;;5099183;27;20241;-81
2023/01/19 01:10:47;;;;;;;28.60;15.13;;;-1.40;1.00;;;;;;5100915;27;20243;-82
2023/01/19 01:13:30;;;;;;;26.48;14.73;;;-1.50;1.00;;;;;;5107745;27;20227;-82
2023/01/19 01:15:57;;;;;;;24.52;14.90;;;-1.50;1.00;;;;;;5116800;27;20243;-84
2023/01/19 01:18:29;;;;;;;24.40;16.35;;;-1.50;1.00;;;;;;5099832;27;20219;-84
2023/01/19 01:21:16;;;;;;;23.75;15.88;;;-1.60;1.00;;;;;;5099475;27;20298;-83
2023/01/19 01:23:48;;;;;;;25.60;14.85;;;-1.60;1.00;;;;;;5093362;27;20236;-84
2023/01/19 01:26:18;;;;;;;25.70;16.08;;;-1.60;1.00;;;;;;5095838;27;20287;-81
2023/01/19 01:28:47;;;;;;;26.88;15.15;;;-1.70;1.00;;;;;;5097337;27;20239;-83
2023/01/19 01:31:16;;;;;;;24.00;15.35;;;-1.70;1.00;;;;;;5086847;27;20235;-80
2023/01/19 01:33:46;;;;;;;26.85;14.70;;;-1.80;1.00;;;;;;5104272;27;20243;-81
2023/01/19 01:36:30;;;;;;;23.40;14.82;;;-1.80;1.00;;;;;;5103395;27;21012;-81
2023/01/19 01:38:58;;;;;;;26.00;14.32;;;-1.70;1.00;;;;;;5097297;27;20330;-82
2023/01/19 01:41:27;;;;;;;24.70;14.43;;;-1.80;1.00;;;;;;5101499;27;20234;-83
2023/01/19 01:44:15;;;;;;;27.35;14.50;;;-1.70;1.00;;;;;;5107223;27;20255;-83
2023/01/19 01:46:48;;;;;;;24.08;14.57;;;-1.70;1.00;;;;;;5103698;27;20243;-82
2023/01/19 01:52:07;;;;;;;24.08;14.02;;;-1.80;1.00;;;;;;5086307;28;20264;-81
2023/01/19 01:54:35;;;;;;;27.13;16.23;;;-1.70;1.00;;;;;;5098565;27;20291;-81
2023/01/19 01:57:11;;;;;;;25.63;14.93;;;-1.70;1.00;;;;;;5087314;27;20313;-82
2023/01/19 01:59:46;;;;;;;24.90;14.73;;;-1.70;1.00;;;;;;5114225;27;20239;-83
2023/01/19 02:05:16;;;;;;;26.17;14.88;;;-1.70;1.00;;;;;;5112438;27;20236;-85
2023/01/19 02:14:17;;;;;;;24.65;13.52;;;-1.80;1.00;;;;;;5114940;27;20223;-85
2023/01/19 02:16:57;;;;;;;24.90;13.93;;;-1.90;1.00;;;;;;5068500;27;20227;-86
2023/01/19 02:19:46;;;;;;;27.98;14.90;;;-2.00;1.00;;;;;;5131800;27;20235;-85
2023/01/19 02:25:36;;;;;;;26.15;14.68;;;-2.10;1.00;;;;;;5115509;27;20235;-86
2023/01/19 02:28:37;;;;;;;25.25;14.32;;;-2.10;1.00;;;;;;5135646;27;20265;-85
2023/01/19 02:31:25;;;;;;;;;;;;;;;;;;;;;
2023/01/19 02:33:58;;;;;;;21.55;12.73;;;-2.30;1.00;;;;;;5104338;27;39295;-86
2023/01/19 02:36:38;;;;;;;25.27;15.45;;;-2.30;1.00;;;;;;5142968;27;20262;-84
2023/01/19 02:42:15;;;;;;;27.45;14.88;;;-2.40;1.00;;;;;;5110917;27;20258;-86
2023/01/19 02:45:14;;;;;;;24.33;15.75;;;-2.40;1.00;;;;;;5117877;27;20242;-84
2023/01/19 02:48:08;;;;;;;25.10;14.77;;;-2.30;1.00;;;;;;5137115;27;20656;-84
2023/01/19 02:50:59;;;;;;;27.92;15.80;;;-2.40;1.00;;;;;;5119274;27;20290;-84
2023/01/19 02:54:19;;;;;;;28.95;15.27;;;-2.40;1.00;;;;;;5081385;27;20208;-84
2023/01/19 02:57:35;;;;;;;26.45;15.68;;;-2.40;1.00;;;;;;5123815;27;20226;-86
2023/01/19 03:06:16;;;;;;;29.48;16.30;;;-2.40;1.00;;;;;;5164329;22;20231;-88
2023/01/19 03:08:59;;;;;;;28.05;15.85;;;-2.50;1.00;;;;;;5112072;27;20232;-90
2023/01/19 03:21:20;;;;;;;;;;;;;;;;;;;;;
2023/01/19 03:24:08;;;;;;;28.13;16.92;;;-2.60;1.00;;;;;;5044640;28;49945;-90
2023/01/19 03:26:58;;;;;;;22.38;14.90;;;-2.60;1.00;;;;;;5061476;28;20241;-90
2023/01/19 03:29:34;;;;;;;24.65;15.45;;;-2.60;1.00;;;;;;5060304;28;20225;-90
2023/01/19 03:32:20;;;;;;;26.08;15.27;;;-2.60;1.00;;;;;;5057217;28;20265;-89
2023/01/19 03:34:55;;;;;;;26.88;15.70;;;-2.60;1.00;;;;;;5046804;28;20234;-90
2023/01/19 03:38:09;;;;;;;;;;;;;;;;;;;;;
2023/01/19 03:40:41;;;;;;;22.95;15.25;;;-2.70;1.00;;;;;;5113476;27;20252;-92
2023/01/19 03:46:19;;;;;;;25.35;16.25;;;-2.60;1.00;;;;;;5118899;27;20277;-91
2023/01/19 03:48:47;;;;;;;26.60;15.90;;;-2.80;1.00;;;;;;5118317;27;20231;-90
2023/01/19 03:51:26;;;;;;;24.35;16.15;;;-2.80;1.00;;;;;;5142778;27;20219;-92
2023/01/19 03:54:18;;;;;;;27.00;16.65;;;-2.70;1.00;;;;;;5109130;27;20227;-91
2023/01/19 03:57:16;;;;;;;27.52;17.58;;;-2.70;1.00;;;;;;5111950;27;20246;-92
2023/01/19 04:00:17;;;;;;;27.27;15.57;;;-2.70;1.00;;;;;;5114005;27;20238;-91
2023/01/19 04:02:59;;;;;;;;;;;;;;;;;;;;;
2023/01/19 04:08:31;;;;;;;26.63;16.70;;;-2.80;1.00;;;;;;5104055;27;20254;-90
2023/01/19 04:11:07;;;;;;;27.45;16.20;;;-2.80;1.00;;;;;;5097371;28;20227;-92
2023/01/19 04:14:04;;;;;;;23.83;14.90;;;-2.80;1.00;;;;;;5094565;27;20243;-93
2023/01/19 04:17:05;;;;;;;33.30;16.02;;;-2.80;1.00;;;;;;5114588;27;20542;-90
2023/01/19 04:19:45;;;;;;;27.90;16.73;;;-2.80;1.00;;;;;;5129931;27;20221;-92
2023/01/19 04:22:26;;;;;;;27.48;15.95;;;-3.00;1.00;;;;;;5056465;28;20229;-93
2023/01/19 04:24:58;;;;;;;25.15;16.27;;;-3.00;1.00;;;;;;5064921;28;20320;-92
2023/01/19 04:27:29;;;;;;;24.92;14.93;;;-3.00;1.00;;;;;;5062004;28;20225;-92
2023/01/19 04:30:08;;;;;;;26.55;17.02;;;-3.00;1.00;;;;;;5076016;27;20244;-90
2023/01/19 04:32:38;;;;;;;22.40;15.35;;;-3.00;1.00;;;;;;5072713;28;20266;-93
2023/01/19 04:35:07;;;;;;;24.48;15.65;;;-3.00;1.00;;;;;;5017961;28;20708;-91
2023/01/19 04:37:38;;;;;;;27.88;17.20;;;-3.00;1.00;;;;;;5054344;28;20200;-92
2023/01/19 04:40:28;;;;;;;25.80;17.40;;;-3.10;1.00;;;;;;5062560;28;20267;-92
2023/01/19 04:42:58;;;;;;;29.48;16.25;;;-3.10;1.00;;;;;;5051374;28;20217;-91
2023/01/19 04:45:39;;;;;;;24.50;15.13;;;-3.10;1.00;;;;;;5058014;28;20233;-92
2023/01/19 04:48:17;;;;;;;25.27;15.77;;;-3.20;1.00;;;;;;5067315;28;20216;-92
2023/01/19 04:53:44;;;;;;;24.30;15.95;;;-3.20;1.00;;;;;;5062575;28;20239;-90
2023/01/19 04:56:29;;;;;;;25.63;15.52;;;-3.20;1.00;;;;;;5091096;28;20232;-92
2023/01/19 05:21:09;;;;;;;28.52;16.92;;;-3.30;1.00;;;;;;5113515;22;20240;-83
2023/01/19 05:24:09;;;;;;;24.50;16.40;;;-3.40;1.00;;;;;;5065807;28;20327;-84
2023/01/19 05:30:15;;;;;;;28.13;16.85;;;-3.40;1.00;;;;;;5133364;22;20235;-85
2023/01/19 05:33:15;;;;;;;25.35;16.20;;;-3.40;1.00;;;;;;5053166;28;20340;-84
2023/01/19 05:39:36;;;;;;;27.00;17.10;;;-3.40;1.00;;;;;;5356958;22;20232;-82
2023/01/19 05:42:14;;;;;;;23.33;14.35;;;-3.50;1.00;;;;;;5067913;28;20246;-81
2023/01/19 05:44:55;;;;;;;26.95;16.95;;;-3.50;1.00;;;;;;5075160;28;20299;-79
2023/01/19 05:47:32;;;;;;;24.98;17.45;;;-3.50;1.00;;;;;;5082952;28;20233;-78
2023/01/19 05:50:28;;;;;;;28.15;16.13;;;-3.50;1.00;;;;;;5128109;27;20239;-80
2023/01/19 05:52:59;;;;;;;31.70;17.70;;;-3.40;1.00;;;;;;5120532;27;20258;-81
2023/01/19 05:55:33;;;;;;;24.90;15.65;;;-3.40;1.00;;;;;;5116410;27;20227;-80
2023/01/19 05:58:06;;;;;;;28.50;15.73;;;-3.40;1.00;;;;;;5106781;27;20268;-78
2023/01/19 06:00:43;;;;;;;24.25;15.68;;;-3.40;1.00;;;;;;5132923;27;20294;-81
2023/01/19 06:03:12;;;;;;;25.17;16.30;;;-3.40;1.00;;;;;;5104875;27;20742;-86
2023/01/19 06:08:25;;;;;;;28.30;16.42;;;-3.40;1.00;;;;;;5123907;27;20338;-83
2023/01/19 06:11:22;;;;;;;30.00;17.70;;;-3.40;1.00;;;;;;5120958;27;20238;-80
2023/01/19 06:14:06;;;;;;;28.42;16.70;;;-3.40;1.00;;;;;;5118530;27;20231;-79
2023/01/19 06:16:33;;;;;;;26.27;16.67;;;-3.40;1.00;;;;;;5113430;27;20247;-80
2023/01/19 06:19:09;;;;;;;26.55;17.05;;;-3.40;1.00;;;;;;5112493;27;20288;-78
2023/01/19 06:21:37;;;;;;;25.92;16.00;;;-3.40;1.00;;;;;;5114616;27;20248;-79
2023/01/19 06:24:06;;;;;;;26.42;17.00;;;-3.40;1.00;;;;;;5110397;27;21012;-80
2023/01/19 06:26:39;;;;;;;26.75;16.13;;;-3.40;1.00;;;;;;5118710;27;20311;-79
2023/01/19 06:29:13;;;;;;;24.65;16.02;;;-3.40;1.00;;;;;;5113834;27;20986;-86
2023/01/19 06:31:44;;;;;;;25.67;16.70;;;-3.40;1.00;;;;;;5114481;27;20231;-84
2023/01/19 06:34:12;;;;;;;25.23;15.18;;;-3.40;1.00;;;;;;5117124;27;20240;-83
2023/01/19 06:36:39;;;;;;;22.50;15.63;;;-3.40;1.00;;;;;;5113810;27;20243;-79
2023/01/19 06:39:09;;;;;;;26.10;16.50;;;-3.40;1.00;;;;;;5114617;27;20266;-83
2023/01/19 06:41:38;;;;;;;27.42;16.27;;;-3.30;1.00;;;;;;5116441;27;20227;-78
2023/01/19 06:44:08;;;;;;;22.92;15.48;;;-3.20;1.00;;;;;;5112845;27;20297;-79
2023/01/19 06:46:35;;;;;;;24.80;17.40;;;-3.20;1.00;;;;;;5114438;27;21118;-81
2023/01/19 06:49:07;;;;;;;26.10;15.63;;;-3.20;1.00;;;;;;5114729;27;20239;-79
2023/01/19 06:51:34;;;;;;;24.80;15.52;;;-3.20;1.00;;;;;;5113995;27;20236;-79
2023/01/19 06:54:01;;;;;;;26.38;15.90;;;-3.20;1.00;;;;;;5114814;27;20923;-78
2023/01/19 06:56:29;;;;;;;28.05;15.98;;;-3.20;1.00;;;;;;5114946;27;20292;-80
2023/01/19 06:58:58;;;;;;;27.23;15.93;;;-3.20;1.00;;;;;;5117965;27;20239;-77
2023/01/19 07:01:27;;;;;;;25.60;15.50;;;-3.20;1.00;;;;;;5113266;27;20318;-80
2023/01/19 07:03:56;;;;;;;28.75;17.10;;;-3.20;1.00;;;;;;5117432;27;20328;-77
2023/01/19 07:06:27;;;;;;;24.20;15.95;;;-3.20;1.00;;;;;;5116570;27;20237;-79
2023/01/19 07:08:59;;;;;;;25.30;16.02;;;-3.20;1.00;;;;;;5114877;27;20235;-78
2023/01/19 07:11:26;;;;;;;24.45;15.95;;;-3.30;1.00;;;;;;5114883;27;21064;-79
2023/01/19 07:13:55;;;;;;;24.00;16.25;;;-3.30;1.00;;;;;;5112749;27;20259;-78
2023/01/19 07:16:26;;;;;;;28.33;16.02;;;-3.30;1.00;;;;;;5116302;27;20239;-78
2023/01/19 07:18:53;;;;;;;25.75;15.85;;;-3.30;1.00;;;;;;5099884;27;20242;-79
2023/01/19 07:21:20;;;;;;;24.27;15.70;;;-3.30;1.00;;;;;;5117403;27;20239;-78
2023/01/19 07:23:48;;;;;;;24.98;16.08;;;-3.20;1.00;;;;;;5111837;27;20324;-80
2023/01/19 07:26:17;;;;;;;22.52;15.50;;;-3.30;1.00;;;;;;5115522;27;20273;-79
2023/01/19 07:28:47;;;;;;;25.92;16.70;;;-3.30;1.00;;;;;;5115547;27;20230;-77
2023/01/19 07:31:14;;;;;;;26.33;16.90;;;-3.30;1.00;;;;;;5116729;27;20240;-79
2023/01/19 07:33:42;;;;;;;27.73;16.25;;;-3.30;1.00;;;;;;5115636;27;20234;-80
2023/01/19 07:36:10;;;;;;;25.73;15.73;;;-3.30;1.00;;;;;;5113578;27;20227;-78
2023/01/19 07:38:41;;;;;;;29.88;17.73;;;-3.20;1.00;;;;;;5115268;27;20242;-77
2023/01/19 07:41:10;;;;;;;23.67;16.30;;;-3.20;1.00;;;;;;5112722;27;20266;-79
2023/01/19 07:43:37;;;;;;;26.38;18.50;;;-3.20;1.00;;;;;;5115203;27;20243;-78
2023/01/19 07:46:06;;;;;;;23.65;15.60;;;-3.20;1.00;;;;;;5118268;27;21090;-78
2023/01/19 07:48:33;;;;;;;24.08;14.57;;;-3.20;1.00;;;;;;5109387;27;20231;-79
2023/01/19 07:51:07;;;;;;;25.00;15.05;;;-3.10;1.00;;;;;;5113180;27;20246;-78
2023/01/19 07:53:36;;;;;;;25.33;15.80;;;-3.10;1.00;;;;;;5116481;27;21023;-78
2023/01/19 07:56:06;;;;;;;22.88;15.77;;;-3.00;1.00;;;;;;5113932;27;21045;-79
2023/01/19 07:58:33;;;;;;;25.58;15.20;;;-2.90;1.00;;;;;;5116145;27;20536;-79
2023/01/19 08:01:01;;;;;;;25.80;14.80;;;-2.80;1.00;;;;;;5114465;27;20243;-79
2023/01/19 08:03:28;;;;;;;24.45;15.85;;;-2.80;1.00;;;;;;5112148;27;20235;-79
2023/01/19 08:05:56;;;;;;;26.85;16.33;;;-2.80;1.00;;;;;;5110361;27;20227;-82
2023/01/19 08:08:27;;;;;;;24.30;15.70;;;-2.70;1.00;;;;;;5116286;27;20231;-81
2023/01/19 08:10:54;;;;;;;21.40;16.02;;;-2.70;1.00;;;;;;5114942;27;21016;-83
2023/01/19 08:13:22;;;;;;;28.25;17.77;;;-2.60;1.00;;;;;;5117542;27;20231;-84
2023/01/19 08:15:51;;;;;;;22.33;13.77;;;-2.50;1.00;;;;;;5116525;27;20710;-82
2023/01/19 08:18:21;;;;;;;22.83;15.23;;;-2.50;1.00;;;;;;5114665;27;20239;-82
2023/01/19 08:20:49;;;;;;;22.73;14.35;;;-2.50;1.00;;;;;;5119663;27;20262;-82
2023/01/19 08:23:18;;;;;;;22.85;13.45;;;-2.50;1.00;;;;;;5119600;27;20239;-84
2023/01/19 08:25:49;;;;;;;19.90;13.43;;;-2.50;1.00;;;;;;5115831;27;20245;-78
2023/01/19 08:28:17;;;;;;;21.40;13.45;;;-2.50;1.00;;;;;;5117537;27;20235;-82
2023/01/19 08:30:52;;;;;;;21.05;13.55;;;-2.40;1.00;;;;;;5116947;27;20289;-79
2023/01/19 08:33:20;;;;;;;23.30;14.35;;;-2.40;1.00;;;;;;5114119;27;20293;-80
2023/01/19 08:35:49;;;;;;;22.80;13.20;;;-2.40;1.00;;;;;;5113752;27;20240;-80
2023/01/19 08:38:21;;;;;;;19.58;13.27;;;-2.40;1.00;;;;;;5112685;27;20235;-86
2023/01/19 08:40:50;;;;;;;24.65;13.07;;;-2.30;1.00;;;;;;5112924;27;20251;-81
2023/01/19 08:43:18;;;;;;;20.98;13.48;;;-2.10;1.00;;;;;;5122839;27;20242;-82
2023/01/19 08:46:08;;;;;;;22.80;13.00;;;-2.10;1.00;;;;;;5118200;27;20231;-79
2023/01/19 08:48:36;;;;;;;20.55;12.75;;;-1.90;1.00;;;;;;5122957;27;20294;-81
2023/01/19 08:51:09;;;;;;;22.50;13.85;;;-1.80;1.00;;;;;;5113926;27;20734;-81
2023/01/19 08:53:45;;;;;;;18.65;12.55;;;-1.60;1.00;;;;;;5115244;27;20240;-79
2023/01/19 08:56:19;;;;;;;20.10;12.80;;;-1.30;1.00;;;;;;5122720;27;20235;-80
2023/01/19 08:58:48;;;;;;;20.80;12.27;;;-1.10;1.00;;;;;;5116533;27;20393;-83
2023/01/19 09:01:19;;;;;;;17.58;11.70;;;-0.90;1.00;;;;;;5116822;27;20354;-80
2023/01/19 09:03:48;;;;;;;18.73;11.43;;;-0.90;1.00;;;;;;5109366;27;20329;-81
2023/01/19 09:06:22;;;;;;;24.00;13.13;;;-0.80;1.00;;;;;;5114163;27;21103;-81
2023/01/19 09:08:50;;;;;;;18.23;12.05;;;-0.80;1.00;;;;;;5111590;27;20235;-82
2023/01/19 09:11:20;;;;;;;17.65;11.43;;;-0.60;1.00;;;;;;5115658;27;20235;-82
2023/01/19 09:13:49;;;;;;;18.92;11.00;;;-0.60;1.00;;;;;;5110619;27;20245;-80
2023/01/19 09:16:17;;;;;;;19.42;11.50;;;-0.60;1.00;;;;;;5123721;27;20244;-81
2023/01/19 09:18:46;;;;;;;16.35;10.27;;;-0.50;1.00;;;;;;5119698;27;20239;-80
2023/01/19 09:21:15;;;;;;;22.23;10.75;;;-0.50;1.00;;;;;;5106703;27;20235;-82
2023/01/19 09:23:44;;;;;;;15.13;9.75;;;-0.40;1.00;;;;;;5103859;27;20242;-81
2023/01/19 09:26:13;;;;;;;16.17;10.18;;;-0.30;1.00;;;;;;5108820;28;20979;-81
2023/01/19 09:28:45;;;;;;;14.10;9.57;;;-0.30;1.00;;;;;;5118394;27;20945;-82
2023/01/19 09:33:53;;;;;;;20.10;9.55;;;0.00;1.00;;;;;;5113903;27;21030;-82
2023/01/19 09:36:20;;;;;;;16.45;9.40;;;0.10;1.00;;;;;;5112651;27;20800;-81
2023/01/19 09:38:48;;;;;;;16.08;10.45;;;0.40;1.00;;;;;;5114930;27;20246;-81
2023/01/19 09:41:21;;;;;;;16.80;10.35;;;1.00;1.00;;;;;;5116639;27;20721;-81
2023/01/19 09:43:54;;;;;;;15.13;9.00;;;1.50;1.00;;;;;;5120076;27;20672;-80
2023/01/19 09:46:27;;;;;;;17.33;9.73;;;1.90;1.00;;;;;;5119160;27;20239;-81
2023/01/19 09:48:57;;;;;;;16.83;9.05;;;2.30;1.00;;;;;;5117193;27;21089;-80
2023/01/19 09:51:28;;;;;;;14.15;8.75;;;2.70;1.00;;;;;;5123541;27;20299;-80
2023/01/19 09:54:26;;;;;;;15.02;9.18;;;3.20;1.00;;;;;;5119200;27;20234;-82
2023/01/19 09:57:02;;;;;;;16.63;9.52;;;3.50;1.00;;;;;;5114466;27;20300;-82
2023/01/19 09:59:37;;;;;;;16.08;9.15;;;3.60;1.00;;;;;;5118089;27;20247;-80
2023/01/19 10:02:33;;;;;;;13.60;9.30;;;3.40;1.00;;;;;;5116279;27;20280;-79
2023/01/19 10:05:02;;;;;;;18.13;9.15;;;3.00;1.00;;;;;;5111502;27;20252;-81
2023/01/19 10:07:57;;;;;;;15.32;9.15;;;2.90;1.00;;;;;;5120087;27;20266;-81
2023/01/19 10:10:29;;;;;;;13.60;8.57;;;2.50;1.00;;;;;;5120874;27;20228;-81
2023/01/19 10:13:10;;;;;;;14.15;9.15;;;2.60;1.00;;;;;;5109702;27;20303;-81
2023/01/19 10:15:58;;;;;;;13.63;8.45;;;3.00;1.00;;;;;;5113810;27;20236;-81
2023/01/19 10:18:33;;;;;;;16.52;9.73;;;3.40;1.00;;;;;;5122337;27;20234;-80
2023/01/19 10:21:06;;;;;;;17.25;9.23;;;3.10;1.00;;;;;;5122262;27;20875;-81
2023/01/19 10:23:59;;;;;;;15.52;8.60;;;2.70;1.00;;;;;;5124070;27;20235;-80
2023/01/19 10:26:43;;;;;;;20.67;9.35;;;2.20;1.00;;;;;;5109298;28;21055;-80
2023/01/19 10:29:22;;;;;;;17.23;9.13;;;2.00;1.00;;;;;;5117833;27;20239;-82
2023/01/19 10:32:05;;;;;;;17.02;9.43;;;2.60;1.00;;;;;;5123907;27;20231;-81
2023/01/19 10:34:42;;;;;;;16.50;8.65;;;3.50;1.00;;;;;;5119257;27;20234;-80
2023/01/19 10:37:27;;;;;;;17.88;8.77;;;3.70;1.00;;;;;;5127013;27;20218;-83
2023/01/19 10:42:57;;;;;;;15.50;9.23;;;3.80;1.00;;;;;;5122765;27;20306;-81
2023/01/19 10:45:37;;;;;;;14.55;9.15;;;4.50;1.00;;;;;;5117294;27;20238;-81
2023/01/19 10:48:09;;;;;;;15.40;9.07;;;4.50;1.00;;;;;;5113084;27;20838;-81
2023/01/19 10:50:39;;;;;;;13.82;9.40;;;4.80;1.00;;;;;;5119619;27;20672;-82
2023/01/19 10:53:19;;;;;;;15.45;9.10;;;5.70;1.00;;;;;;5113084;27;20204;-81
2023/01/19 10:55:48;;;;;;;14.07;9.05;;;5.40;1.00;;;;;;5115674;27;20755;-81
2023/01/19 10:58:29;;;;;;;15.65;8.50;;;4.90;1.00;;;;;;5115402;27;20231;-81
2023/01/19 11:01:16;;;;;;;15.68;8.60;;;5.60;1.00;;;;;;5121423;27;20234;-81
2023/01/19 11:03:47;;;;;;;14.38;9.02;;;5.90;1.00;;;;;;5122552;27;20266;-85
2023/01/19 11:06:24;;;;;;;19.80;9.63;;;6.20;1.00;;;;;;5112566;27;20282;-80
2023/01/19 11:09:16;;;;;;;13.57;8.68;;;6.00;1.00;;;;;;5119589;27;20236;-82
2023/01/19 11:11:48;;;;;;;13.98;7.78;;;5.80;1.00;;;;;;5108503;27;20223;-81
2023/01/19 11:14:26;;;;;;;16.08;9.70;;;5.80;1.00;;;;;;5124998;27;20236;-83
2023/01/19 11:16:59;;;;;;;21.88;15.60;;;5.80;1.00;;;;;;5117666;27;20416;-82
2023/01/19 11:19:55;;;;;;;15.50;8.43;;;5.70;1.00;;;;;;5113122;27;20243;-83
2023/01/19 11:22:42;;;;;;;14.70;9.48;;;5.50;1.00;;;;;;5112368;27;20235;-81
2023/01/19 11:25:24;;;;;;;13.40;8.60;;;5.40;1.00;;;;;;5118408;27;20321;-82
2023/01/19 11:27:59;;;;;;;15.57;9.70;;;5.40;1.00;;;;;;5123018;27;20266;-81
2023/01/19 11:30:30;;;;;;;13.55;9.15;;;5.30;1.00;;;;;;5116444;27;20292;-82
2023/01/19 11:33:01;;;;;;;12.10;8.85;;;5.60;1.00;;;;;;5124343;27;20262;-82
2023/01/19 11:35:45;;;;;;;13.82;8.82;;;5.70;1.00;;;;;;5121882;27;20215;-82
2023/01/19 11:38:24;;;;;;;14.20;9.02;;;6.40;1.00;;;;;;5109151;27;20232;-87
2023/01/19 11:41:11;;;;;;;;;;;;;;;;;;;;;
2023/01/19 11:43:40;;;;;;;12.32;8.48;;;7.40;1.00;;;;;;5120873;27;40457;-83
2023/01/19 11:46:37;;;;;;;12.98;8.57;;;7.60;1.00;;;;;;5113581;27;20238;-83
2023/01/19 11:49:26;;;;;;;12.45;8.20;;;7.70;1.00;;;;;;5128340;27;20255;-82
2023/01/19 11:52:22;;;;;;;12.85;8.68;;;7.50;1.00;;;;;;5113309;27;20235;-84
2023/01/19 11:55:03;;;;;;;11.73;8.00;;;7.50;1.00;;;;;;5116386;27;20238;-80
2023/01/19 11:57:30;;;;;;;12.90;8.35;;;7.20;1.00;;;;;;5118299;27;20292;-78
2023/01/19 12:00:23;;;;;;;13.98;8.75;;;7.80;1.00;;;;;;5113049;27;20235;-80
2023/01/19 12:02:58;;;;;;;12.88;9.13;;;8.40;1.00;;;;;;5124379;27;20272;-80
2023/01/19 12:05:33;;;;;;;14.40;9.45;;;8.20;1.00;;;;;;5118647;27;20326;-80
2023/01/19 12:08:24;;;;;;;14.38;9.00;;;7.70;1.00;;;;;;5117919;27;20300;-80
2023/01/19 12:10:57;;;;;;;16.83;9.38;;;7.90;1.00;;;;;;5106817;27;20346;-81
2023/01/19 12:13:34;;;;;;;14.82;8.95;;;8.90;1.00;;;;;;5121377;27;20232;-80
2023/01/19 12:16:07;;;;;;;15.80;8.88;;;10.00;1.00;;;;;;5116798;27;20234;-80
2023/01/19 12:18:40;;;;;;;13.30;8.67;;;10.10;1.00;;;;;;5122723;27;20231;-81
2023/01/19 12:21:07;;;;;;;14.20;9.03;;;9.70;1.00;;;;;;5119302;27;20432;-81
2023/01/19 12:23:50;;;;;;;15.87;8.60;;;10.20;1.00;;;;;;5121255;27;20461;-81
2023/01/19 12:26:47;;;;;;;16.23;9.30;;;11.20;1.00;;;;;;5118197;27;20489;-82
2023/01/19 12:29:18;;;;;;;12.77;9.30;;;12.10;1.00;;;;;;5123778;27;20487;-81
2023/01/19 12:31:48;;;;;;;14.47;10.03;;;12.00;1.00;;;;;;5118777;27;20469;-82
2023/01/19 12:34:41;;;;;;;14.00;9.77;;;11.90;1.00;;;;;;5119821;27;20450;-80
2023/01/19 12:37:33;;;;;;;14.17;9.27;;;12.30;1.00;;;;;;5112070;27;20463;-81
2023/01/19 12:40:24;;;;;;;14.20;10.70;;;12.40;1.00;;;;;;5116567;27;20442;-83
2023/01/19 12:43:01;;;;;;;13.03;9.27;;;12.30;1.00;;;;;;5116708;27;20551;-81
2023/01/19 12:45:32;;;;;;;17.90;10.50;;;12.70;1.00;;;;;;5119364;27;20585;-82
2023/01/19 12:48:24;;;;;;;17.40;10.33;;;12.10;1.00;;;;;;5117584;27;20596;-79
2023/01/19 12:50:52;;;;;;;15.43;10.00;;;11.00;1.00;;;;;;5116155;27;20548;-81
2023/01/19 12:53:21;;;;;;;13.97;10.00;;;11.10;1.00;;;;;;5117922;27;21019;-79
2023/01/19 12:56:04;;;;;;;15.63;9.80;;;11.20;1.00;;;;;;5115211;27;20468;-83
2023/01/19 12:58:33;;;;;;;12.43;9.43;;;10.80;1.00;;;;;;5112774;27;20466;-82
2023/01/19 13:01:17;;;;;;;15.17;10.03;;;10.50;1.00;;;;;;5116170;27;20454;-80
2023/01/19 13:03:58;;;;;;;23.33;19.23;;;10.60;1.00;;;;;;5114787;27;20476;-81
2023/01/19 13:07:02;;;;;;;17.83;10.43;;;11.20;1.00;;;;;;5118980;27;20558;-81
2023/01/19 13:09:31;;;;;;;14.77;10.30;;;10.80;1.00;;;;;;5115401;27;20597;-86
2023/01/19 13:12:29;;;;;;;15.63;11.07;;;9.90;1.00;;;;;;5113013;27;20456;-80
2023/01/19 13:15:27;;;;;;;15.45;10.85;;;8.40;1.00;;;;;;5071190;27;20240;-80
2023/01/19 13:18:01;;;;;;;16.60;10.68;;;6.90;1.00;;;;;;5114158;27;20322;-80
2023/01/19 13:20:45;;;;;;;15.07;10.90;;;6.40;1.00;;;;;;5120467;27;20278;-80
2023/01/19 13:23:22;;;;;;;14.35;9.93;;;7.50;1.00;;;;;;5104213;27;20237;-81
2023/01/19 13:26:13;;;;;;;14.05;9.90;;;8.40;1.00;;;;;;5115450;27;20231;-78
2023/01/19 13:28:47;;;;;;;18.65;10.90;;;7.90;1.00;;;;;;5121809;27;20756;-80
2023/01/19 13:31:17;;;;;;;16.48;11.27;;;7.60;1.00;;;;;;5116984;27;20230;-81
2023/01/19 13:33:48;;;;;;;16.85;10.10;;;7.00;1.00;;;;;;5111693;27;21001;-80
2023/01/19 13:36:25;;;;;;;16.27;10.95;;;6.70;1.00;;;;;;5114199;27;20826;-80
2023/01/19 13:39:08;;;;;;;17.60;11.43;;;6.20;1.00;;;;;;5108688;27;20281;-80
2023/01/19 13:41:39;;;;;;;17.60;12.20;;;5.90;1.00;;;;;;5116556;27;20254;-80
2023/01/19 13:44:18;;;;;;;17.05;11.07;;;5.30;1.00;;;;;;5114669;27;20243;-82
2023/01/19 13:46:48;;;;;;;15.55;11.32;;;4.70;1.00;;;;;;5117725;27;20265;-83
2023/01/19 13:49:27;;;;;;;16.48;10.68;;;4.20;1.00;;;;;;5119257;27;20266;-83
2023/01/19 13:52:13;;;;;;;14.27;10.55;;;3.60;1.00;;;;;;5123096;27;20797;-83
2023/01/19 13:55:23;;;;;;;17.27;12.15;;;3.40;1.00;;;;;;5120897;27;20243;-83
2023/01/19 14:01:49;;;;;;;16.10;10.52;;;2.80;1.00;;;;;;4981082;28;21936;-82
2023/01/19 14:18:58;;;;;;;17.38;10.05;;;2.40;1.00;;;;;;4901663;28;20229;-85
2023/01/19 14:27:21;;;;;;;18.42;11.57;;;2.20;1.00;;;;;;5088429;22;20766;-87
2023/01/19 14:30:01;;;;;;;17.60;11.57;;;2.00;1.00;;;;;;5111980;27;20247;-85
2023/01/19 14:33:00;;;;;;;;;;;;;;;;;;;;;
2023/01/19 14:35:39;;;;;;;20.27;12.25;;;1.80;1.00;;;;;;5104981;27;51028;-86
2023/01/19 14:38:48;;;;;;;16.95;10.80;;;1.60;1.00;;;;;;5122873;27;20244;-84
2023/01/19 14:42:00;;;;;;;17.60;12.20;;;1.70;1.00;;;;;;5218662;22;20243;-84
2023/01/19 14:44:40;;;;;;;19.55;12.80;;;1.60;1.00;;;;;;5092162;27;20723;-85
2023/01/19 14:47:40;;;;;;;18.13;11.57;;;1.60;1.00;;;;;;5066175;28;20235;-83
2023/01/19 14:50:23;;;;;;;17.70;11.60;;;1.50;1.00;;;;;;5102586;27;20266;-85
2023/01/19 14:53:03;;;;;;;24.08;12.52;;;1.40;1.00;;;;;;5089130;27;20785;-83
2023/01/19 14:58:39;;;;;;;19.08;12.48;;;1.30;1.00;;;;;;5078183;27;20242;-85
2023/01/19 15:01:29;;;;;;;18.52;12.35;;;1.30;1.00;;;;;;5094871;27;20230;-84
2023/01/19 15:04:02;;;;;;;20.83;12.50;;;1.30;1.00;;;;;;5101177;27;20231;-82
2023/01/19 15:06:44;;;;;;;21.35;11.40;;;1.30;1.00;;;;;;5098996;27;20242;-82
2023/01/19 15:12:20;;;;;;;18.98;12.48;;;1.20;1.00;;;;;;5101539;27;21140;-84
2023/01/19 15:15:00;;;;;;;22.58;13.20;;;1.10;1.00;;;;;;5094247;27;21502;-84
2023/01/19 15:17:46;;;;;;;21.40;12.82;;;1.10;1.00;;;;;;5107551;27;20223;-84
2023/01/19 15:20:29;;;;;;;24.65;13.32;;;1.00;1.00;;;;;;5082387;28;20241;-85
2023/01/19 15:25:51;;;;;;;18.88;12.73;;;0.90;1.00;;;;;;5098610;27;20243;-85
2023/01/19 15:28:28;;;;;;;19.88;13.07;;;0.90;1.00;;;;;;5104699;27;20239;-84
2023/01/19 15:31:18;;;;;;;18.63;12.45;;;0.90;1.00;;;;;;5101101;27;20719;-82
2023/01/19 15:33:51;;;;;;;20.50;13.23;;;0.80;1.00;;;;;;5077616;27;20724;-83
2023/01/19 15:36:42;;;;;;;19.75;12.55;;;0.80;1.00;;;;;;5116503;27;20695;-84
2023/01/19 15:42:19;;;;;;;19.30;12.85;;;0.70;1.00;;;;;;5078392;28;20321;-85
2023/01/19 15:45:27;;;;;;;19.92;13.10;;;0.70;1.00;;;;;;5074232;27;20244;-83
2023/01/19 15:48:01;;;;;;;21.48;14.13;;;0.70;1.00;;;;;;5096380;28;20240;-83
2023/01/19 15:50:31;;;;;;;19.27;13.30;;;0.80;1.00;;;;;;5092768;28;20230;-83